Time;durP1;ratioP1;P1;durP2;ratioP2;P2;SDS_P1;SDS_P2;PMS_P1;PMS_P2;Temp;Humidity;BMP_temperature;BMP_pressure;BME280_temperature;BME280_humidity;BME280_pressure;Samples;Min_cycle;Max_cycle;Signal;HPM_P1;HPM_P2
2024/01/26 00:00:03;;;;;;;0.45;0.45;;;;;;;6.44;100.00;97147.06;1015624;29;20043;-70
2024/01/26 00:00:34;;;;;;;0.38;0.38;;;;;;;6.48;100.00;97152.66;1016126;29;20059;-71
2024/01/26 00:01:04;;;;;;;1.17;1.08;;;;;;;6.47;100.00;97156.25;1019648;29;20206;-70
2024/01/26 00:01:35;;;;;;;0.32;0.32;;;;;;;6.45;100.00;97153.06;1022765;28;20079;-70
2024/01/26 00:02:05;;;;;;;0.57;0.55;;;;;;;6.44;100.00;97152.28;1027582;28;20091;-71
2024/01/26 00:02:36;;;;;;;1.98;1.25;;;;;;;6.46;100.00;97155.47;1023443;29;20026;-71
2024/01/26 00:03:06;;;;;;;0.60;0.60;;;;;;;6.47;100.00;97157.09;1021264;28;20031;-71
2024/01/26 00:03:38;;;;;;;0.73;0.57;;;;;;;6.47;100.00;97156.25;1027272;28;20074;-70
2024/01/26 00:04:09;;;;;;;0.30;0.30;;;;;;;6.48;100.00;97150.06;1027718;28;20039;-70
2024/01/26 00:04:39;;;;;;;2.03;0.90;;;;;;;6.43;100.00;97157.66;1031833;28;20030;-68
2024/01/26 00:05:10;;;;;;;0.77;0.75;;;;;;;6.44;100.00;97161.88;1027330;28;20046;-69
2024/01/26 00:05:40;;;;;;;1.20;0.65;;;;;;;6.45;100.00;97155.69;1023707;28;20027;-71
2024/01/26 00:06:10;;;;;;;0.20;0.20;;;;;;;6.42;100.00;97153.47;1023363;29;20091;-70
2024/01/26 00:06:41;;;;;;;0.77;0.77;;;;;;;6.46;100.00;97155.47;1023375;28;20078;-71
2024/01/26 00:07:11;;;;;;;0.88;0.57;;;;;;;6.46;100.00;97155.47;1027636;28;20037;-71
2024/01/26 00:07:42;;;;;;;1.50;1.40;;;;;;;6.44;100.00;97157.47;1025887;28;20035;-71
2024/01/26 00:08:15;;;;;;;0.43;0.25;;;;;;;6.48;100.00;97163.09;1023334;28;20023;-70
2024/01/26 00:08:46;;;;;;;0.47;0.20;;;;;;;6.48;100.00;97163.09;1027632;28;20038;-70
2024/01/26 00:09:16;;;;;;;1.25;1.08;;;;;;;6.50;100.00;97161.06;1027328;28;20031;-70
2024/01/26 00:09:47;;;;;;;1.00;0.30;;;;;;;6.50;100.00;97163.69;1027947;28;20030;-69
2024/01/26 00:10:17;;;;;;;0.60;0.60;;;;;;;6.47;100.00;97156.25;1031162;28;20490;-71
2024/01/26 00:10:48;;;;;;;0.73;0.73;;;;;;;6.48;100.00;97169.13;1023296;29;20175;-70
2024/01/26 00:11:18;;;;;;;0.55;0.55;;;;;;;6.49;100.00;97167.31;1023644;28;20038;-70
2024/01/26 00:11:49;;;;;;;0.20;0.20;;;;;;;6.50;100.00;97166.28;1027214;28;20035;-70
2024/01/26 00:12:19;;;;;;;1.77;0.73;;;;;;;6.47;100.00;97164.91;1027505;28;20109;-70
2024/01/26 00:12:50;;;;;;;1.13;0.60;;;;;;;6.47;100.00;97164.91;1035709;28;20040;-70
2024/01/26 00:13:20;;;;;;;0.60;0.50;;;;;;;6.47;100.00;97166.69;1029470;28;20093;-71
2024/01/26 00:13:51;;;;;;;0.10;0.10;;;;;;;6.44;100.00;97167.91;1031703;28;20581;-70
2024/01/26 00:14:22;;;;;;;0.50;0.50;;;;;;;6.48;100.00;97163.09;1031485;28;20018;-70
2024/01/26 00:14:52;;;;;;;1.60;1.08;;;;;;;6.50;100.00;97174.09;1031848;28;20026;-71
2024/01/26 00:15:22;;;;;;;0.30;0.30;;;;;;;6.47;100.00;97164.09;1035654;28;20065;-70
2024/01/26 00:15:53;;;;;;;1.98;1.30;;;;;;;6.42;100.00;97158.69;1031231;28;20038;-71
2024/01/26 00:16:23;;;;;;;0.70;0.70;;;;;;;6.47;100.00;97171.91;1027468;28;20783;-71
2024/01/26 00:16:54;;;;;;;1.08;0.77;;;;;;;6.47;100.00;97171.91;1027703;28;20030;-70
2024/01/26 00:17:24;;;;;;;1.02;0.95;;;;;;;6.47;100.00;97166.69;1027238;28;20035;-71
2024/01/26 00:17:55;;;;;;;0.50;0.50;;;;;;;6.44;100.00;97174.91;1031442;28;20022;-70
2024/01/26 00:18:25;;;;;;;0.57;0.57;;;;;;;6.45;100.00;97171.31;1023096;29;20491;-73
2024/01/26 00:18:56;;;;;;;0.75;0.75;;;;;;;6.47;100.00;97175.34;1022919;28;20175;-70
2024/01/26 00:19:26;;;;;;;0.60;0.60;;;;;;;6.44;100.00;97173.13;1027541;28;20050;-70
2024/01/26 00:19:56;;;;;;;0.90;0.38;;;;;;;6.43;100.00;97179.31;1031213;28;20018;-70
2024/01/26 00:20:28;;;;;;;0.85;0.85;;;;;;;6.43;100.00;97173.31;1031204;28;20037;-70
2024/01/26 00:20:58;;;;;;;0.65;0.40;;;;;;;6.45;100.00;97174.72;1027763;28;20050;-70
2024/01/26 00:21:29;;;;;;;0.95;0.43;;;;;;;6.45;100.00;97173.94;1027319;28;20026;-70
2024/01/26 00:21:59;;;;;;;1.00;0.90;;;;;;;6.44;100.00;97172.31;1023537;29;20042;-71
2024/01/26 00:22:30;;;;;;;0.30;0.30;;;;;;;6.42;100.00;97172.50;1023363;28;20435;-68
2024/01/26 00:23:00;;;;;;;0.43;0.40;;;;;;;6.43;100.00;97178.53;1027535;28;20033;-69
2024/01/26 00:23:31;;;;;;;0.30;0.30;;;;;;;6.43;100.00;97171.50;1033297;28;20034;-70
2024/01/26 00:24:02;;;;;;;2.70;1.17;;;;;;;6.43;100.00;97176.72;1035401;28;20022;-72
2024/01/26 00:24:33;;;;;;;0.90;0.60;;;;;;;6.42;100.00;97179.53;1035266;28;20034;-71
2024/01/26 00:25:04;;;;;;;2.95;1.00;;;;;;;6.36;100.00;97168.09;1035335;28;20030;-70
2024/01/26 00:25:35;;;;;;;0.73;0.57;;;;;;;6.36;100.00;97174.09;1027591;28;20030;-70
2024/01/26 00:26:05;;;;;;;0.80;0.80;;;;;;;6.34;100.00;97168.31;1023753;29;20031;-70
2024/01/26 00:26:35;;;;;;;0.80;0.75;;;;;;;6.35;100.00;97169.91;1023358;29;20407;-72
2024/01/26 00:27:06;;;;;;;2.10;0.45;;;;;;;6.37;100.00;97165.31;1023145;28;20098;-67
2024/01/26 00:27:36;;;;;;;1.25;0.22;;;;;;;6.34;100.00;97164.91;1019704;28;20036;-70
2024/01/26 00:28:07;;;;;;;0.70;0.60;;;;;;;6.35;100.00;97164.69;1023010;28;20031;-70
2024/01/26 00:28:37;;;;;;;2.72;0.57;;;;;;;6.31;100.00;97160.88;1026693;28;20130;-70
2024/01/26 00:29:08;;;;;;;0.25;0.25;;;;;;;6.33;100.00;97166.69;1026249;28;20039;-70
2024/01/26 00:29:39;;;;;;;0.57;0.50;;;;;;;6.37;100.00;97167.91;1031624;28;20433;-70
2024/01/26 00:30:10;;;;;;;0.20;0.17;;;;;;;6.35;100.00;97164.69;1035466;28;20018;-71
2024/01/26 00:30:40;;;;;;;3.72;0.85;;;;;;;6.37;100.00;97161.88;1035006;28;20022;-71
2024/01/26 00:31:16;;;;;;;3.78;1.23;;;;;;;6.34;100.00;97157.88;1026497;28;20015;-70
2024/01/26 00:31:46;;;;;;;0.30;0.30;;;;;;;6.32;100.00;97157.25;1015505;29;20511;-70
2024/01/26 00:32:17;;;;;;;0.63;0.63;;;;;;;6.33;100.00;97158.88;1015397;29;20024;-70
2024/01/26 00:32:47;;;;;;;1.90;1.15;;;;;;;6.35;100.00;97162.09;1016843;28;20044;-71
2024/01/26 00:33:18;;;;;;;0.40;0.35;;;;;;;6.36;100.00;97161.06;1017032;29;20028;-72
2024/01/26 00:33:48;;;;;;;0.17;0.17;;;;;;;6.35;100.00;97159.47;1023401;28;20530;-71
2024/01/26 00:34:18;;;;;;;0.95;0.63;;;;;;;6.35;100.00;97159.47;1031654;28;20049;-71
2024/01/26 00:34:49;;;;;;;1.27;0.17;;;;;;;6.34;100.00;97155.28;1031333;28;20030;-70
2024/01/26 00:35:19;;;;;;;1.02;0.85;;;;;;;6.32;100.00;97154.66;1039789;28;20025;-71
2024/01/26 00:35:50;;;;;;;0.22;0.22;;;;;;;6.32;100.00;97153.88;1035584;28;20033;-72
2024/01/26 00:36:20;;;;;;;0.65;0.28;;;;;;;6.30;100.00;97156.66;1035334;28;20033;-69
2024/01/26 00:36:51;;;;;;;0.55;0.55;;;;;;;6.29;100.00;97152.44;1035279;28;20041;-70
2024/01/26 00:37:21;;;;;;;1.00;0.55;;;;;;;6.24;100.00;97141.84;1031593;28;20022;-70
2024/01/26 00:37:52;;;;;;;0.32;0.30;;;;;;;6.28;100.00;97150.84;1027272;28;20042;-71
2024/01/26 00:38:22;;;;;;;0.75;0.63;;;;;;;6.29;100.00;97155.06;1027301;28;20030;-70
2024/01/26 00:38:52;;;;;;;0.45;0.45;;;;;;;6.24;100.00;97143.66;1022679;28;20506;-70
2024/01/26 00:39:23;;;;;;;0.60;0.60;;;;;;;6.24;100.00;97149.66;1023416;28;20435;-70
2024/01/26 00:39:53;;;;;;;0.10;0.10;;;;;;;6.24;100.00;97152.25;1027358;28;20053;-71
2024/01/26 00:40:24;;;;;;;4.45;1.00;;;;;;;6.20;100.00;97143.22;1027216;28;20058;-71
2024/01/26 00:40:54;;;;;;;2.08;1.88;;;;;;;6.24;100.00;97152.25;1023340;28;20417;-71
2024/01/26 00:41:25;;;;;;;0.60;0.60;;;;;;;6.24;100.00;97154.88;1023518;28;20038;-71
2024/01/26 00:41:55;;;;;;;1.15;1.08;;;;;;;6.25;100.00;97151.25;1027636;28;20033;-70
2024/01/26 00:42:26;;;;;;;1.40;1.30;;;;;;;6.26;100.00;97152.06;1027689;28;20034;-72
2024/01/26 00:42:56;;;;;;;0.30;0.25;;;;;;;6.26;100.00;97152.84;1035121;28;20087;-71
2024/01/26 00:43:26;;;;;;;0.93;0.93;;;;;;;6.21;100.00;97142.25;1035265;28;20038;-71
2024/01/26 00:43:57;;;;;;;1.23;0.55;;;;;;;6.23;100.00;97155.84;1027625;28;20371;-71
2024/01/26 00:44:28;;;;;;;1.65;0.80;;;;;;;6.20;100.00;97145.03;1027343;28;20554;-71
2024/01/26 00:44:58;;;;;;;0.57;0.57;;;;;;;6.26;100.00;97157.25;1023281;29;20114;-71
2024/01/26 00:45:29;;;;;;;0.17;0.17;;;;;;;6.24;100.00;97157.47;1027505;28;20029;-70
2024/01/26 00:45:59;;;;;;;0.10;0.10;;;;;;;6.26;100.00;97146.84;1035241;28;20065;-71
2024/01/26 00:46:30;;;;;;;0.88;0.85;;;;;;;6.26;100.00;97157.25;1031413;28;20035;-71
2024/01/26 00:47:00;;;;;;;0.43;0.43;;;;;;;6.26;100.00;97155.47;1031331;28;20022;-70
2024/01/26 00:47:31;;;;;;;1.17;0.65;;;;;;;6.25;100.00;97153.06;1034988;28;20029;-71
2024/01/26 00:48:01;;;;;;;0.55;0.25;;;;;;;6.25;100.00;97163.50;1035480;28;20034;-71
2024/01/26 00:48:32;;;;;;;0.45;0.40;;;;;;;6.24;100.00;97154.88;1034594;28;20397;-69
2024/01/26 00:49:02;;;;;;;0.35;0.35;;;;;;;6.22;100.00;97154.25;1035231;28;20034;-71
2024/01/26 00:49:32;;;;;;;0.60;0.60;;;;;;;6.24;100.00;97152.25;1035456;28;20029;-70
2024/01/26 00:50:04;;;;;;;0.30;0.30;;;;;;;6.24;100.00;97144.44;1032342;28;20524;-70
2024/01/26 00:50:34;;;;;;;0.47;0.47;;;;;;;6.24;100.00;97157.47;1034755;28;20038;-71
2024/01/26 00:51:06;;;;;;;2.20;1.00;;;;;;;6.14;100.00;97141.44;1031412;28;20436;-70
2024/01/26 00:51:37;;;;;;;0.90;0.43;;;;;;;6.22;100.00;97148.25;1031569;28;20038;-69
2024/01/26 00:52:08;;;;;;;0.85;0.85;;;;;;;6.18;100.00;97153.06;1035622;28;20021;-71
2024/01/26 00:52:38;;;;;;;0.73;0.43;;;;;;;6.14;100.00;97144.84;1034840;28;20117;-70
2024/01/26 00:53:09;;;;;;;0.57;0.57;;;;;;;6.16;100.00;97160.25;1023579;29;20470;-71
2024/01/26 00:53:39;;;;;;;0.30;0.17;;;;;;;6.14;100.00;97150.06;1023800;29;20118;-70
2024/01/26 00:54:09;;;;;;;0.43;0.30;;;;;;;6.15;100.00;97156.06;1022120;29;20039;-71
2024/01/26 00:54:40;;;;;;;2.42;0.65;;;;;;;6.11;100.00;97152.25;1027256;28;20023;-71
2024/01/26 00:55:10;;;;;;;1.98;0.75;;;;;;;6.09;100.00;97147.22;1027232;29;20101;-72
2024/01/26 00:55:41;;;;;;;0.73;0.47;;;;;;;6.09;100.00;97154.25;1022829;29;20032;-70
2024/01/26 00:56:11;;;;;;;0.38;0.38;;;;;;;6.08;100.00;97155.25;1023131;29;20034;-71
2024/01/26 00:56:42;;;;;;;0.35;0.35;;;;;;;6.08;100.00;97148.22;1027129;28;20039;-71
2024/01/26 00:57:12;;;;;;;1.17;0.85;;;;;;;6.09;100.00;97151.63;1031113;28;20498;-70
2024/01/26 00:57:43;;;;;;;1.42;1.33;;;;;;;6.09;100.00;97144.63;1038704;28;20041;-70
2024/01/26 00:58:13;;;;;;;0.80;0.40;;;;;;;6.09;100.00;97141.22;1038754;28;20472;-71
2024/01/26 00:58:44;;;;;;;0.52;0.50;;;;;;;6.11;100.00;97147.03;1034052;28;20022;-71
2024/01/26 00:59:14;;;;;;;1.38;0.60;;;;;;;6.11;100.00;97149.66;1038063;28;20037;-72
2024/01/26 00:59:45;;;;;;;0.45;0.20;;;;;;;6.11;100.00;97149.66;1031600;28;20081;-71
2024/01/26 01:00:16;;;;;;;1.25;1.17;;;;;;;6.09;100.00;97146.44;1023336;29;20517;-71
2024/01/26 01:00:47;;;;;;;1.95;0.73;;;;;;;6.10;100.00;97143.63;1023193;29;20058;-71
2024/01/26 01:01:17;;;;;;;2.50;0.43;;;;;;;6.09;100.00;97143.81;1023238;28;20031;-70
2024/01/26 01:01:48;;;;;;;0.47;0.38;;;;;;;6.09;100.00;97144.63;1023972;28;20031;-71
2024/01/26 01:02:18;;;;;;;0.80;0.40;;;;;;;6.09;100.00;97146.44;1030934;28;20030;-69
2024/01/26 01:02:49;;;;;;;0.52;0.50;;;;;;;6.07;100.00;97148.41;1030995;28;20038;-70
2024/01/26 01:03:19;;;;;;;1.00;0.73;;;;;;;6.11;100.00;97144.44;1030651;28;20022;-71
2024/01/26 01:03:50;;;;;;;0.90;0.65;;;;;;;6.13;100.00;97145.03;1030997;28;20023;-68
2024/01/26 01:04:20;;;;;;;0.55;0.55;;;;;;;6.13;100.00;97139.81;1030995;28;20398;-72
2024/01/26 01:04:51;;;;;;;1.02;0.70;;;;;;;6.12;100.00;97146.03;1023122;28;20027;-70
2024/01/26 01:05:21;;;;;;;0.73;0.73;;;;;;;6.11;100.00;97134.00;1023129;28;20019;-72
2024/01/26 01:05:52;;;;;;;0.40;0.30;;;;;;;6.12;100.00;97143.41;1027247;28;20031;-71
2024/01/26 01:06:22;;;;;;;0.52;0.52;;;;;;;6.14;100.00;97147.44;1031007;28;20077;-72
2024/01/26 01:06:53;;;;;;;0.60;0.60;;;;;;;6.13;100.00;97143.22;1035115;28;20022;-70
2024/01/26 01:07:23;;;;;;;0.45;0.43;;;;;;;6.16;100.00;97149.84;1034466;28;20017;-69
2024/01/26 01:07:54;;;;;;;0.38;0.25;;;;;;;6.15;100.00;97148.25;1026037;28;20066;-70
2024/01/26 01:08:24;;;;;;;1.77;0.85;;;;;;;6.16;100.00;97152.44;1019227;29;20020;-72
2024/01/26 01:08:55;;;;;;;0.57;0.57;;;;;;;6.16;100.00;97149.84;1022472;29;20039;-71
2024/01/26 01:09:25;;;;;;;0.70;0.10;;;;;;;6.15;100.00;97148.25;1023184;28;20027;-70
2024/01/26 01:09:56;;;;;;;1.13;1.02;;;;;;;6.17;100.00;97155.84;1031319;28;20553;-70
2024/01/26 01:10:26;;;;;;;0.25;0.10;;;;;;;6.19;100.00;97157.25;1034907;28;20408;-69
2024/01/26 01:10:56;;;;;;;0.10;0.10;;;;;;;6.18;100.00;97152.25;1034962;28;20120;-72
2024/01/26 01:11:27;;;;;;;0.13;0.10;;;;;;;6.17;100.00;97148.84;1035269;28;20029;-70
2024/01/26 01:11:58;;;;;;;0.10;0.10;;;;;;;6.14;100.00;97154.47;1031111;28;20046;-70
2024/01/26 01:12:28;;;;;;;0.75;0.75;;;;;;;6.16;100.00;97149.84;1023027;28;20031;-71
2024/01/26 01:12:58;;;;;;;0.38;0.30;;;;;;;6.17;100.00;97148.84;1026976;28;20043;-71
2024/01/26 01:13:29;;;;;;;0.43;0.10;;;;;;;6.21;100.00;97150.06;1022876;29;20050;-71
2024/01/26 01:13:59;;;;;;;0.43;0.30;;;;;;;6.21;100.00;97152.66;1023232;28;20035;-70
2024/01/26 01:14:30;;;;;;;0.20;0.20;;;;;;;6.22;100.00;97159.47;1027013;28;20042;-69
2024/01/26 01:15:03;;;;;;;6.28;0.68;;;;;;;6.21;100.00;97157.06;1024671;28;20023;-71
2024/01/26 01:15:34;;;;;;;0.38;0.35;;;;;;;6.20;100.00;97145.81;1027431;28;20034;-70
2024/01/26 01:16:05;;;;;;;0.30;0.30;;;;;;;6.21;100.00;97146.66;1022858;29;20467;-72
2024/01/26 01:16:35;;;;;;;1.52;1.10;;;;;;;6.21;100.00;97154.47;1023558;28;20027;-71
2024/01/26 01:17:05;;;;;;;0.40;0.40;;;;;;;6.22;100.00;97156.88;1022981;29;20038;-71
2024/01/26 01:17:36;;;;;;;0.38;0.38;;;;;;;6.23;100.00;97162.88;1019343;28;20032;-70
2024/01/26 01:18:06;;;;;;;3.10;0.30;;;;;;;6.21;100.00;97160.47;1027157;28;20022;-70
2024/01/26 01:18:37;;;;;;;1.52;0.57;;;;;;;6.19;100.00;97144.22;1026425;28;20106;-71
2024/01/26 01:19:07;;;;;;;1.10;0.52;;;;;;;6.21;100.00;97155.25;1027047;28;20054;-71
2024/01/26 01:19:38;;;;;;;0.43;0.43;;;;;;;6.20;100.00;97161.47;1031311;28;20030;-71
2024/01/26 01:20:10;;;;;;;0.35;0.15;;;;;;;6.21;100.00;97163.09;1027043;28;20011;-71
2024/01/26 01:20:40;;;;;;;0.00;0.00;;;;;;;6.20;100.00;97158.06;1031168;28;20094;-69
2024/01/26 01:21:11;;;;;;;0.38;0.38;;;;;;;6.23;100.00;97166.28;1031050;28;20030;-71
2024/01/26 01:21:41;;;;;;;0.52;0.52;;;;;;;6.24;100.00;97161.88;1031231;28;20030;-70
2024/01/26 01:22:12;;;;;;;1.17;1.13;;;;;;;6.25;100.00;97171.31;1031278;28;20034;-70
2024/01/26 01:22:44;;;;;;;0.17;0.17;;;;;;;6.23;100.00;97174.09;1026882;28;20518;-71
2024/01/26 01:23:15;;;;;;;0.28;0.28;;;;;;;6.24;100.00;97169.72;1022894;29;20031;-70
2024/01/26 01:23:45;;;;;;;0.10;0.05;;;;;;;6.24;100.00;97167.09;1019461;29;20044;-72
2024/01/26 01:24:16;;;;;;;1.60;0.98;;;;;;;6.24;100.00;97161.88;1023684;28;20027;-70
2024/01/26 01:24:46;;;;;;;0.50;0.50;;;;;;;6.21;100.00;97160.47;1027341;28;20526;-70
2024/01/26 01:25:17;;;;;;;0.73;0.73;;;;;;;6.26;100.00;97171.09;1023034;28;20258;-72
2024/01/26 01:25:47;;;;;;;0.43;0.30;;;;;;;6.25;100.00;97168.69;1022992;29;20035;-69
2024/01/26 01:26:18;;;;;;;0.43;0.43;;;;;;;6.23;100.00;97174.09;1019370;29;20051;-70
2024/01/26 01:26:48;;;;;;;0.40;0.40;;;;;;;6.28;100.00;97174.31;1018947;28;20036;-70
2024/01/26 01:27:19;;;;;;;0.70;0.20;;;;;;;6.29;100.00;97175.13;1027203;28;20037;-69
2024/01/26 01:27:49;;;;;;;1.20;0.88;;;;;;;6.31;100.00;97173.13;1027155;28;20031;-71
2024/01/26 01:28:20;;;;;;;0.00;0.00;;;;;;;6.33;100.00;97177.09;1027154;28;20533;-71
2024/01/26 01:28:50;;;;;;;0.75;0.52;;;;;;;6.34;100.00;97167.50;1034372;28;20529;-70
2024/01/26 01:29:21;;;;;;;0.32;0.32;;;;;;;6.34;100.00;97177.94;1035063;28;20088;-71
2024/01/26 01:29:51;;;;;;;0.08;0.08;;;;;;;6.36;100.00;97181.13;1035133;28;20110;-71
2024/01/26 01:30:21;;;;;;;1.58;0.73;;;;;;;6.38;100.00;97174.72;1028837;28;20073;-71
2024/01/26 01:30:52;;;;;;;0.75;0.25;;;;;;;6.34;100.00;97173.53;1030831;28;20030;-71
2024/01/26 01:31:22;;;;;;;0.30;0.30;;;;;;;6.38;100.00;97174.72;1026906;28;20034;-70
2024/01/26 01:31:53;;;;;;;1.10;0.63;;;;;;;6.41;100.00;97188.38;1026966;28;20101;-71
2024/01/26 01:32:23;;;;;;;0.17;0.17;;;;;;;6.41;100.00;97172.72;1030836;28;20362;-70
2024/01/26 01:32:54;;;;;;;0.30;0.30;;;;;;;6.41;100.00;97173.53;1031040;28;20034;-70
2024/01/26 01:33:25;;;;;;;0.15;0.15;;;;;;;6.42;100.00;97169.09;1035005;28;20029;-73
2024/01/26 01:33:55;;;;;;;1.20;0.75;;;;;;;6.42;100.00;97169.91;1035571;28;20456;-70
2024/01/26 01:34:26;;;;;;;0.13;0.13;;;;;;;6.41;100.00;97168.31;1035185;28;20033;-71
2024/01/26 01:34:56;;;;;;;0.10;0.10;;;;;;;6.44;100.00;97174.91;1030917;28;20022;-70
2024/01/26 01:35:27;;;;;;;0.38;0.38;;;;;;;6.44;100.00;97178.34;1028708;28;20042;-70
2024/01/26 01:35:57;;;;;;;2.08;1.08;;;;;;;6.45;100.00;97174.72;1031346;28;20038;-72
2024/01/26 01:36:28;;;;;;;0.08;0.08;;;;;;;6.45;100.00;97176.53;1030849;28;20470;-71
2024/01/26 01:36:58;;;;;;;1.95;1.02;;;;;;;6.45;100.00;97171.31;1031085;28;20049;-71
2024/01/26 01:37:29;;;;;;;0.82;0.82;;;;;;;6.44;100.00;97167.09;1034805;28;20029;-70
2024/01/26 01:37:59;;;;;;;0.90;0.80;;;;;;;6.41;100.00;97172.72;1030814;28;20065;-71
2024/01/26 01:38:32;;;;;;;0.28;0.28;;;;;;;6.43;100.00;97178.53;1030508;28;20673;-70
2024/01/26 01:39:03;;;;;;;1.08;0.75;;;;;;;6.41;100.00;97172.72;1027212;28;20098;-71
2024/01/26 01:39:33;;;;;;;1.15;0.90;;;;;;;6.43;100.00;97178.53;1026813;28;20049;-72
2024/01/26 01:40:04;;;;;;;0.00;0.00;;;;;;;6.41;100.00;97172.72;1027063;28;20041;-72
2024/01/26 01:40:34;;;;;;;0.52;0.52;;;;;;;6.37;100.00;97173.13;1030734;28;20022;-70
2024/01/26 01:41:05;;;;;;;0.65;0.65;;;;;;;6.37;100.00;97170.53;1035006;28;20030;-71
2024/01/26 01:41:35;;;;;;;1.02;0.88;;;;;;;6.37;100.00;97173.13;1026618;28;20545;-71
2024/01/26 01:42:13;;;;;;;0.65;0.65;;;;;;;6.34;100.00;97164.91;1022913;28;20035;-71
2024/01/26 01:42:44;;;;;;;1.48;0.57;;;;;;;6.36;100.00;97166.28;1022934;28;20031;-72
2024/01/26 01:43:16;;;;;;;0.00;0.00;;;;;;;6.38;100.00;97173.91;1018394;29;20031;-70
2024/01/26 01:43:53;;;;;;;0.65;0.65;;;;;;;6.41;100.00;97170.13;1020460;28;20515;-70
2024/01/26 01:44:24;;;;;;;0.80;0.60;;;;;;;6.41;100.00;97162.31;1022136;28;20067;-70
2024/01/26 01:44:55;;;;;;;0.65;0.63;;;;;;;6.42;100.00;97169.09;1026078;28;20139;-71
2024/01/26 01:45:25;;;;;;;0.90;0.85;;;;;;;6.39;100.00;97165.09;1025960;28;20027;-72
2024/01/26 01:45:56;;;;;;;0.68;0.68;;;;;;;6.40;100.00;97168.50;1019943;29;20032;-72
2024/01/26 01:46:26;;;;;;;0.70;0.70;;;;;;;6.42;100.00;97166.50;1015014;29;20043;-70
2024/01/26 01:46:57;;;;;;;0.13;0.13;;;;;;;6.42;100.00;97162.09;1019046;29;20027;-70
2024/01/26 01:47:27;;;;;;;2.00;1.20;;;;;;;6.43;100.00;97165.50;1018986;29;20031;-71
2024/01/26 01:47:58;;;;;;;0.38;0.35;;;;;;;6.42;100.00;97159.47;1022922;28;20031;-72
2024/01/26 01:48:28;;;;;;;1.23;0.57;;;;;;;6.40;100.00;97155.47;1023190;28;20499;-70
2024/01/26 01:48:59;;;;;;;0.52;0.52;;;;;;;6.43;100.00;97165.50;1022145;29;20031;-69
2024/01/26 01:49:29;;;;;;;0.35;0.35;;;;;;;6.41;100.00;97163.09;1019084;29;20028;-72
2024/01/26 01:50:00;;;;;;;0.22;0.13;;;;;;;6.40;100.00;97163.28;1020760;28;20030;-70
2024/01/26 01:50:30;;;;;;;0.40;0.40;;;;;;;6.38;100.00;97168.72;1018866;28;20086;-70
2024/01/26 01:51:00;;;;;;;0.30;0.30;;;;;;;6.38;100.00;97159.06;1019111;29;20020;-70
2024/01/26 01:51:34;;;;;;;0.32;0.32;;;;;;;6.40;100.00;97163.28;1022746;28;20507;-70
2024/01/26 01:52:08;;;;;;;0.25;0.20;;;;;;;6.32;100.00;97149.44;1023355;28;20035;-70
2024/01/26 01:52:44;;;;;;;0.00;0.00;;;;;;;6.37;100.00;97156.66;1024629;28;20070;-68
2024/01/26 01:53:14;;;;;;;0.70;0.70;;;;;;;6.37;100.00;97152.28;1026837;28;20022;-70
2024/01/26 01:53:45;;;;;;;0.75;0.30;;;;;;;6.33;100.00;97148.44;1032070;28;20041;-70
2024/01/26 01:54:15;;;;;;;0.30;0.28;;;;;;;6.36;100.00;97152.44;1023261;28;20551;-70
2024/01/26 01:54:46;;;;;;;0.57;0.57;;;;;;;6.37;100.00;97154.06;1015916;29;20139;-71
2024/01/26 01:55:16;;;;;;;0.45;0.43;;;;;;;6.35;100.00;97154.25;1014931;29;20047;-71
2024/01/26 01:55:46;;;;;;;0.38;0.35;;;;;;;6.36;100.00;97155.06;1020204;28;20091;-71
2024/01/26 01:56:17;;;;;;;0.35;0.35;;;;;;;6.33;100.00;97151.03;1022695;29;20039;-70
2024/01/26 01:56:48;;;;;;;0.80;0.80;;;;;;;6.33;100.00;97151.03;1018821;29;20028;-72
2024/01/26 01:57:19;;;;;;;0.30;0.30;;;;;;;6.32;100.00;97153.88;1018783;29;20035;-69
2024/01/26 01:57:50;;;;;;;0.60;0.35;;;;;;;6.30;100.00;97156.66;1019249;29;20036;-71
2024/01/26 01:58:20;;;;;;;0.40;0.40;;;;;;;6.30;100.00;97154.03;1022725;29;20538;-71
2024/01/26 01:58:51;;;;;;;0.77;0.77;;;;;;;6.32;100.00;97152.06;1022576;29;20127;-70
2024/01/26 01:59:21;;;;;;;0.10;0.10;;;;;;;6.31;100.00;97153.06;1018941;29;20034;-70
2024/01/26 01:59:52;;;;;;;1.80;0.30;;;;;;;6.33;100.00;97155.47;1022005;28;20031;-73
2024/01/26 02:00:23;;;;;;;2.42;0.50;;;;;;;6.31;100.00;97150.47;1026734;28;20035;-71
2024/01/26 02:00:53;;;;;;;0.95;0.52;;;;;;;6.34;100.00;97152.66;1019077;29;20024;-72
2024/01/26 02:01:25;;;;;;;1.13;0.75;;;;;;;6.37;100.00;97152.28;1020375;28;20548;-71
2024/01/26 02:01:55;;;;;;;0.40;0.40;;;;;;;6.31;100.00;97152.28;1019052;29;20028;-72
2024/01/26 02:02:26;;;;;;;1.20;0.90;;;;;;;6.36;100.00;97153.25;1027063;28;20026;-70
2024/01/26 02:02:56;;;;;;;0.57;0.45;;;;;;;6.34;100.00;97152.66;1027120;28;20042;-70
2024/01/26 02:03:28;;;;;;;1.35;1.15;;;;;;;6.37;100.00;97151.44;1026522;28;20205;-70
2024/01/26 02:04:02;;;;;;;0.13;0.13;;;;;;;6.37;100.00;97152.28;1023194;28;20023;-70
2024/01/26 02:04:32;;;;;;;4.78;0.88;;;;;;;6.38;100.00;97160.88;1023566;28;20055;-70
2024/01/26 02:05:03;;;;;;;0.10;0.10;;;;;;;6.40;100.00;97153.66;1023224;28;20589;-70
2024/01/26 02:05:34;;;;;;;0.95;0.50;;;;;;;6.36;100.00;97153.25;1027542;28;20038;-72
2024/01/26 02:06:04;;;;;;;1.02;0.90;;;;;;;6.37;100.00;97159.25;1026882;28;20123;-70
2024/01/26 02:06:35;;;;;;;0.35;0.35;;;;;;;6.37;100.00;97157.47;1030764;28;20022;-71
2024/01/26 02:07:05;;;;;;;3.35;0.63;;;;;;;6.38;100.00;97158.28;1034789;28;20018;-71
2024/01/26 02:07:36;;;;;;;0.93;0.93;;;;;;;6.38;100.00;97159.06;1029890;28;20037;-71
2024/01/26 02:08:06;;;;;;;1.38;1.27;;;;;;;6.37;100.00;97157.47;1031404;28;20398;-70
2024/01/26 02:08:37;;;;;;;0.52;0.52;;;;;;;6.34;100.00;97155.28;1034251;28;20014;-70
2024/01/26 02:09:07;;;;;;;0.88;0.82;;;;;;;6.34;100.00;97157.88;1026746;28;20027;-71
2024/01/26 02:09:37;;;;;;;0.43;0.43;;;;;;;6.33;100.00;97155.47;1022824;29;20062;-70
2024/01/26 02:10:09;;;;;;;2.83;1.02;;;;;;;6.35;100.00;97156.06;1022422;29;20042;-70
2024/01/26 02:10:40;;;;;;;0.28;0.28;;;;;;;6.34;100.00;97157.88;1019239;28;20020;-71
2024/01/26 02:11:10;;;;;;;0.75;0.75;;;;;;;6.34;100.00;97163.09;1027228;28;20550;-70
2024/01/26 02:11:41;;;;;;;1.25;1.17;;;;;;;6.30;100.00;97155.84;1028359;28;20019;-70
2024/01/26 02:12:11;;;;;;;1.33;1.23;;;;;;;6.31;100.00;97158.28;1023061;28;20020;-71
2024/01/26 02:12:42;;;;;;;0.88;0.73;;;;;;;6.33;100.00;97158.88;1022794;29;20474;-71
2024/01/26 02:13:13;;;;;;;3.95;0.98;;;;;;;6.34;100.00;97163.09;1018788;29;20012;-71
2024/01/26 02:13:43;;;;;;;0.22;0.22;;;;;;;6.34;100.00;97152.66;1018861;29;20039;-71
2024/01/26 02:14:14;;;;;;;0.45;0.45;;;;;;;6.40;100.00;97160.66;1018903;29;20034;-72
2024/01/26 02:14:44;;;;;;;3.13;0.55;;;;;;;6.38;100.00;97158.28;1018783;29;20035;-71
2024/01/26 02:15:15;;;;;;;0.45;0.45;;;;;;;6.38;100.00;97158.28;1026439;28;20022;-70
2024/01/26 02:15:45;;;;;;;0.35;0.35;;;;;;;6.37;100.00;97152.28;1022744;28;20526;-70
2024/01/26 02:16:15;;;;;;;3.00;1.65;;;;;;;6.35;100.00;97153.47;1022742;28;20023;-71
2024/01/26 02:16:55;;;;;;;0.50;0.50;;;;;;;6.40;100.00;97160.66;1022750;29;20031;-72
2024/01/26 02:17:32;;;;;;;4.97;1.25;;;;;;;6.37;100.00;97157.47;1017497;29;20071;-72
2024/01/26 02:18:03;;;;;;;1.67;1.48;;;;;;;6.43;100.00;97165.50;1021060;29;20036;-69
2024/01/26 02:18:34;;;;;;;0.13;0.13;;;;;;;6.40;100.00;97160.66;1024360;28;20051;-70
2024/01/26 02:19:04;;;;;;;1.38;1.08;;;;;;;6.41;100.00;97159.69;1027601;28;20027;-71
2024/01/26 02:19:35;;;;;;;0.32;0.32;;;;;;;6.40;100.00;97155.47;1031110;28;20462;-69
2024/01/26 02:20:06;;;;;;;0.20;0.17;;;;;;;6.39;100.00;97159.88;1032701;28;20026;-68
2024/01/26 02:20:36;;;;;;;1.20;1.20;;;;;;;6.38;100.00;97156.47;1027792;28;20030;-72
2024/01/26 02:21:07;;;;;;;0.10;0.10;;;;;;;6.37;100.00;97156.66;1029065;28;20386;-70
2024/01/26 02:21:37;;;;;;;0.65;0.65;;;;;;;6.38;100.00;97153.06;1023405;28;20035;-70
2024/01/26 02:22:08;;;;;;;0.65;0.45;;;;;;;6.37;100.00;97157.47;1026950;28;20074;-70
2024/01/26 02:22:38;;;;;;;1.15;0.90;;;;;;;6.37;100.00;97156.66;1030169;28;20025;-70
2024/01/26 02:23:09;;;;;;;0.13;0.13;;;;;;;6.35;100.00;97154.25;1027915;28;20022;-68
2024/01/26 02:23:41;;;;;;;7.72;0.95;;;;;;;6.39;100.00;97154.66;1034793;28;20050;-68
2024/01/26 02:24:13;;;;;;;0.70;0.70;;;;;;;6.39;100.00;97154.66;1035049;28;20030;-69
2024/01/26 02:24:43;;;;;;;1.08;0.32;;;;;;;6.37;100.00;97154.88;1027614;28;20039;-70